Time;durP1;ratioP1;P1;durP2;ratioP2;P2;SDS_P1;SDS_P2;PMS_P1;PMS_P2;Temp;Humidity;BMP_temperature;BMP_pressure;BME280_temperature;BME280_humidity;BME280_pressure;Samples;Min_cycle;Max_cycle;Signal;HPM_P1;HPM_P2
2022/08/06 00:00:48;;;;;;;4.93;2.80;;;;;;;22.45;69.76;98673.84;4133933;28;20640;-83
2022/08/06 00:02:51;;;;;;;5.10;3.30;;;;;;;22.45;69.53;98673.03;4141632;28;20644;-83
2022/08/06 00:04:55;;;;;;;4.27;3.30;;;;;;;22.43;70.43;98675.00;4149919;28;20991;-83
2022/08/06 00:06:59;;;;;;;3.90;3.30;;;;;;;22.49;71.58;98675.19;4170436;28;20628;-83
2022/08/06 00:09:03;;;;;;;3.77;3.17;;;;;;;22.54;72.04;98680.84;4138240;28;21223;-83
2022/08/06 00:11:07;;;;;;;3.00;2.70;;;;;;;22.58;70.83;98671.56;4155020;28;20631;-83
2022/08/06 00:13:13;;;;;;;4.17;3.47;;;;;;;22.56;71.84;98678.84;4169957;28;20635;-83
2022/08/06 00:15:18;;;;;;;5.17;3.50;;;;;;;22.58;72.11;98674.22;4167604;28;20666;-83
2022/08/06 00:17:42;;;;;;;3.50;3.13;;;;;;;22.58;71.43;98676.88;4166110;28;20682;-83
2022/08/06 00:19:45;;;;;;;4.43;2.90;;;;;;;22.57;71.01;98677.84;4169996;28;20662;-83
2022/08/06 00:22:02;;;;;;;4.00;3.30;;;;;;;22.56;72.18;98678.84;4154775;28;21072;-83
2022/08/06 00:24:06;;;;;;;4.43;2.70;;;;;;;22.48;69.54;98678.84;4170654;28;20674;-83
2022/08/06 00:26:28;;;;;;;3.37;3.07;;;;;;;22.41;69.36;98683.13;4168526;28;20702;-83
2022/08/06 00:28:33;;;;;;;3.30;2.97;;;;;;;22.34;69.13;98684.81;4154585;28;22857;-83
2022/08/06 00:30:36;;;;;;;2.90;2.60;;;;;;;22.22;69.41;98687.09;4134808;28;20638;-83
2022/08/06 00:32:39;;;;;;;4.27;2.87;;;;;;;22.22;69.24;98684.44;4155821;28;20721;-83
2022/08/06 00:34:43;;;;;;;3.67;2.97;;;;;;;22.25;68.60;98693.75;4148559;28;20683;-83
2022/08/06 00:36:46;;;;;;;3.60;3.07;;;;;;;22.26;68.56;98694.56;4155771;28;20656;-83
2022/08/06 00:38:50;;;;;;;3.80;2.80;;;;;;;22.30;70.41;98696.75;4169298;28;21213;-83
2022/08/06 00:40:54;;;;;;;3.20;2.63;;;;;;;22.29;68.19;98689.75;4167915;28;20648;-83
2022/08/06 00:43:03;;;;;;;2.90;2.50;;;;;;;22.28;68.02;98688.13;4154059;28;21064;-83
2022/08/06 00:45:12;;;;;;;3.33;3.03;;;;;;;22.24;67.74;98678.78;4155011;28;21036;-83
2022/08/06 00:47:27;;;;;;;4.23;2.50;;;;;;;22.25;68.29;98683.13;4152339;28;20734;-83
2022/08/06 00:49:50;;;;;;;4.70;2.17;;;;;;;22.23;67.27;98678.13;4140230;28;20939;-83
2022/08/06 00:51:53;;;;;;;4.20;2.50;;;;;;;22.17;67.37;98682.22;4170404;28;20677;-83
2022/08/06 00:53:59;;;;;;;3.67;2.50;;;;;;;22.21;67.49;98690.75;4174249;28;20722;-83
2022/08/06 00:56:05;;;;;;;3.53;2.50;;;;;;;22.21;66.83;98696.91;4171781;28;20654;-83
2022/08/06 00:58:10;;;;;;;3.73;2.73;;;;;;;22.08;66.93;98691.16;4173996;28;20626;-83
2022/08/06 01:00:16;;;;;;;3.30;2.70;;;;;;;21.95;66.23;98690.81;4155796;28;20642;-83
2022/08/06 01:02:32;;;;;;;3.90;2.37;;;;;;;21.74;66.85;98683.38;4157638;28;20646;-83
2022/08/06 01:04:36;;;;;;;4.33;2.37;;;;;;;21.73;66.34;98685.22;4161217;28;20644;-83
2022/08/06 01:06:40;;;;;;;2.97;2.43;;;;;;;21.66;66.14;98683.34;4154708;28;20642;-83
2022/08/06 01:08:58;;;;;;;3.00;2.40;;;;;;;21.62;66.14;98685.50;4143664;28;20655;-83
2022/08/06 01:11:02;;;;;;;3.30;2.43;;;;;;;21.62;66.79;98682.00;4139674;28;20667;-83
2022/08/06 01:13:12;;;;;;;3.43;2.53;;;;;;;21.67;68.25;98687.69;4163331;28;20732;-83
2022/08/06 01:15:28;;;;;;;3.07;2.70;;;;;;;21.62;65.60;98697.94;4145756;28;25096;-83
2022/08/06 01:17:56;;;;;;;3.60;2.37;;;;;;;21.49;66.23;98687.75;4161761;28;20632;-83
2022/08/06 01:20:15;;;;;;;4.40;2.70;;;;;;;21.42;66.71;98685.84;4146415;28;21746;-83
2022/08/06 01:22:47;;;;;;;4.07;2.80;;;;;;;21.39;67.85;98689.66;4163265;28;20645;-83
2022/08/06 01:25:10;;;;;;;3.50;2.77;;;;;;;21.34;66.21;98691.94;4160579;28;20637;-83
2022/08/06 01:27:38;;;;;;;3.00;2.37;;;;;;;21.45;68.53;98696.16;4165145;28;20629;-83
2022/08/06 01:29:50;;;;;;;3.90;2.70;;;;;;;21.43;67.16;98696.31;4140124;28;20627;-83
2022/08/06 01:31:56;;;;;;;3.03;2.70;;;;;;;21.33;66.79;98690.28;4161703;28;21287;-83
2022/08/06 01:34:02;;;;;;;4.53;2.20;;;;;;;21.37;66.56;98694.28;4146023;28;20636;-83
2022/08/06 01:36:10;;;;;;;4.40;2.63;;;;;;;21.46;69.11;98693.38;4164231;28;20696;-83
2022/08/06 01:38:17;;;;;;;4.17;2.60;;;;;;;21.53;68.42;98699.72;4163269;28;20630;-83
2022/08/06 01:40:27;;;;;;;3.13;2.30;;;;;;;21.56;69.06;98702.06;4146727;28;21043;-83
2022/08/06 01:42:32;;;;;;;3.30;2.37;;;;;;;21.60;67.54;98702.59;4127403;28;21281;-83
2022/08/06 01:44:41;;;;;;;4.70;2.60;;;;;;;21.55;67.21;98702.22;4162005;28;20743;-83
2022/08/06 01:46:52;;;;;;;2.67;2.37;;;;;;;21.55;67.90;98708.38;4160597;28;20629;-83
2022/08/06 01:48:56;;;;;;;3.20;2.33;;;;;;;21.49;66.82;98711.66;4144840;28;20645;-83
2022/08/06 01:51:02;;;;;;;2.73;2.20;;;;;;;21.45;67.13;98704.97;4162396;28;20670;-83
2022/08/06 01:53:08;;;;;;;4.83;2.37;;;;;;;21.47;67.85;98696.84;4161751;28;20631;-83
2022/08/06 01:55:19;;;;;;;2.60;2.20;;;;;;;21.34;66.25;98705.22;4163184;28;20644;-83
2022/08/06 01:57:25;;;;;;;2.83;2.40;;;;;;;21.39;68.03;98710.91;4164255;28;20633;-83
2022/08/06 01:59:51;;;;;;;4.83;2.60;;;;;;;21.35;66.02;98709.53;4147644;28;20646;-83
2022/08/06 02:02:00;;;;;;;3.60;2.90;;;;;;;21.27;67.21;98699.84;4160927;28;20782;-83
2022/08/06 02:04:05;;;;;;;4.33;2.30;;;;;;;21.27;66.78;98704.19;4133543;28;20658;-83
2022/08/06 02:06:12;;;;;;;2.97;2.67;;;;;;;21.27;67.25;98705.16;4161601;28;20637;-83
2022/08/06 02:08:18;;;;;;;3.53;2.63;;;;;;;21.27;66.86;98705.16;4145347;28;20704;-83
2022/08/06 02:10:41;;;;;;;2.93;2.37;;;;;;;21.23;67.53;98709.09;4155012;28;20711;-83
2022/08/06 02:12:45;;;;;;;3.10;2.50;;;;;;;21.19;66.71;98711.25;4140375;28;20645;-83
2022/08/06 02:14:54;;;;;;;3.93;2.43;;;;;;;21.08;66.83;98700.91;4162832;28;21196;-83
2022/08/06 02:16:59;;;;;;;4.90;2.57;;;;;;;21.05;68.07;98700.34;4128050;28;20655;-83
2022/08/06 02:19:17;;;;;;;3.63;2.60;;;;;;;21.08;69.16;98705.34;4143345;28;20641;-83
2022/08/06 02:21:43;;;;;;;3.53;2.50;;;;;;;21.16;67.41;98708.09;4160854;28;20618;-83
2022/08/06 02:23:53;;;;;;;3.60;2.60;;;;;;;21.04;67.90;98702.19;4145463;28;20638;-83
2022/08/06 02:25:56;;;;;;;4.00;2.40;;;;;;;21.01;67.85;98701.66;4145795;28;20648;-83
2022/08/06 02:28:00;;;;;;;3.97;2.30;;;;;;;21.02;68.04;98703.34;4143005;28;22985;-83
2022/08/06 02:30:06;;;;;;;4.80;2.43;;;;;;;21.05;67.51;98703.00;4130341;28;21232;-83
2022/08/06 02:32:11;;;;;;;4.17;2.70;;;;;;;21.08;67.63;98714.16;4161286;28;20717;-83
2022/08/06 02:34:18;;;;;;;3.30;2.40;;;;;;;21.09;66.97;98714.97;4158950;28;20648;-83
2022/08/06 02:36:37;;;;;;;3.23;2.90;;;;;;;21.13;67.48;98711.88;4133905;28;20666;-83
2022/08/06 02:38:55;;;;;;;3.93;2.33;;;;;;;21.19;68.30;98707.78;4161185;28;20718;-83
2022/08/06 02:41:01;;;;;;;4.23;2.73;;;;;;;21.22;68.81;98716.25;4163135;28;20642;-83
2022/08/06 02:43:07;;;;;;;3.97;2.47;;;;;;;21.20;67.71;98720.03;4130697;28;20742;-83
2022/08/06 02:45:18;;;;;;;3.93;2.70;;;;;;;21.11;67.83;98713.00;4133009;28;20644;-83
2022/08/06 02:47:24;;;;;;;3.00;2.40;;;;;;;21.10;67.18;98714.00;4148155;28;20635;-82
2022/08/06 02:49:50;;;;;;;7.23;2.63;;;;;;;21.09;67.88;98710.50;4161253;28;20637;-83
2022/08/06 02:52:01;;;;;;;3.40;2.40;;;;;;;21.12;69.60;98714.69;4162196;28;20739;-83
2022/08/06 02:54:29;;;;;;;3.93;2.93;;;;;;;21.14;68.05;98716.19;4159604;28;20706;-83
2022/08/06 02:56:34;;;;;;;3.07;2.60;;;;;;;21.07;67.71;98725.75;4154918;28;21397;-83
2022/08/06 02:58:49;;;;;;;4.43;2.93;;;;;;;21.00;68.76;98718.56;4148191;28;21411;-83
2022/08/06 03:01:06;;;;;;;3.57;2.87;;;;;;;21.01;67.25;98717.59;4147471;28;20739;-83
2022/08/06 03:03:11;;;;;;;5.13;2.87;;;;;;;20.99;68.96;98719.56;4147029;28;21449;-83
2022/08/06 03:05:23;;;;;;;4.67;2.97;;;;;;;20.97;67.79;98718.88;4163727;28;23843;-83
2022/08/06 03:07:48;;;;;;;4.23;2.70;;;;;;;20.98;69.32;98718.72;4146035;28;21129;-83
2022/08/06 03:09:52;;;;;;;3.93;2.57;;;;;;;21.00;68.37;98716.75;4144974;28;21555;-83
2022/08/06 03:11:58;;;;;;;3.20;2.40;;;;;;;21.01;67.63;98717.59;4164811;28;20994;-83
2022/08/06 03:14:02;;;;;;;5.10;2.53;;;;;;;21.02;68.97;98724.56;4146411;28;20698;-83
2022/08/06 03:16:27;;;;;;;3.67;2.43;;;;;;;21.01;68.76;98713.09;4160141;28;20642;-83
2022/08/06 03:18:33;;;;;;;4.87;2.40;;;;;;;21.03;69.17;98728.88;4155278;28;21351;-83
2022/08/06 03:20:36;;;;;;;4.43;2.60;;;;;;;20.97;68.30;98726.81;4153422;28;20649;-83
2022/08/06 03:22:41;;;;;;;6.97;2.73;;;;;;;20.93;69.40;98736.09;4161163;28;21519;-83
2022/08/06 03:24:47;;;;;;;3.20;2.73;;;;;;;20.92;69.05;98734.41;4160351;28;20632;-83
2022/08/06 03:26:54;;;;;;;4.73;3.03;;;;;;;20.94;68.82;98740.41;4160952;28;20630;-83
2022/08/06 03:28:59;;;;;;;4.50;2.70;;;;;;;20.97;68.93;98742.75;4160683;28;21180;-83
2022/08/06 03:31:03;;;;;;;4.23;3.20;;;;;;;20.90;67.94;98739.06;4129608;28;20636;-83
2022/08/06 03:33:09;;;;;;;4.20;2.80;;;;;;;20.90;69.75;98739.06;4160575;28;20629;-83
2022/08/06 03:35:34;;;;;;;5.63;3.00;;;;;;;20.94;69.96;98743.91;4161196;28;21011;-83
2022/08/06 03:37:54;;;;;;;4.50;3.00;;;;;;;20.84;68.33;98745.78;4147710;28;20657;-83
2022/08/06 03:40:06;;;;;;;4.87;3.10;;;;;;;20.86;69.91;98753.59;4145532;28;20686;-83
2022/08/06 03:42:09;;;;;;;4.30;2.97;;;;;;;20.89;69.64;98753.28;4137846;28;20636;-82
2022/08/06 03:44:15;;;;;;;3.90;2.80;;;;;;;20.91;70.42;98760.13;4161398;28;21153;-83
2022/08/06 03:46:22;;;;;;;5.03;2.83;;;;;;;20.91;69.84;98760.13;4145957;28;20638;-83
2022/08/06 03:48:33;;;;;;;3.60;2.50;;;;;;;20.90;68.72;98753.13;4162327;28;20692;-82
2022/08/06 03:50:43;;;;;;;3.67;2.77;;;;;;;20.91;68.80;98769.88;4137432;28;20642;-83
2022/08/06 03:52:55;;;;;;;5.23;2.63;;;;;;;20.88;69.35;98759.56;4152835;28;20618;-83
2022/08/06 03:55:03;;;;;;;3.53;2.80;;;;;;;20.88;70.43;98770.19;4146209;28;21044;-83
2022/08/06 03:57:11;;;;;;;3.40;2.87;;;;;;;20.88;69.49;98764.88;4161090;28;20644;-82
2022/08/06 03:59:14;;;;;;;3.20;2.83;;;;;;;20.89;69.20;98767.38;4161840;28;20713;-83
2022/08/06 04:01:21;;;;;;;3.33;2.47;;;;;;;20.79;69.03;98760.47;4159969;28;20632;-82
2022/08/06 04:03:25;;;;;;;5.57;2.93;;;;;;;20.75;70.15;98768.88;4149103;28;20746;-83
2022/08/06 04:05:34;;;;;;;4.00;3.00;;;;;;;20.80;71.17;98767.47;4160332;28;20825;-82
2022/08/06 04:07:44;;;;;;;3.80;2.80;;;;;;;20.81;69.18;98774.44;4142498;28;20696;-83
2022/08/06 04:09:58;;;;;;;3.07;2.60;;;;;;;20.82;69.81;98776.09;4145674;28;20631;-83
2022/08/06 04:12:04;;;;;;;3.70;2.90;;;;;;;20.81;70.84;98777.09;4160419;28;20765;-83
2022/08/06 04:14:27;;;;;;;3.30;3.00;;;;;;;20.79;71.52;98776.41;4130252;28;20644;-83
2022/08/06 04:16:31;;;;;;;3.13;2.50;;;;;;;20.79;69.74;98781.69;4160108;28;20680;-83
2022/08/06 04:18:39;;;;;;;3.37;2.60;;;;;;;20.74;69.58;98778.66;4160643;28;20945;-82
2022/08/06 04:20:47;;;;;;;4.43;2.80;;;;;;;20.68;70.73;98783.75;4147859;28;20637;-82
2022/08/06 04:22:55;;;;;;;3.40;2.90;;;;;;;20.68;71.65;98789.88;4133747;28;20722;-83
2022/08/06 04:25:11;;;;;;;3.40;2.83;;;;;;;20.72;71.70;98787.75;4161886;28;20628;-83
2022/08/06 04:27:15;;;;;;;4.27;3.23;;;;;;;20.65;70.55;98786.66;4169071;28;21156;-83
2022/08/06 04:29:22;;;;;;;3.03;2.80;;;;;;;20.61;69.84;98794.09;4156378;28;20622;-82
2022/08/06 04:31:27;;;;;;;3.10;2.73;;;;;;;20.61;69.97;98798.53;4169268;28;21188;-82
2022/08/06 04:33:52;;;;;;;3.87;2.70;;;;;;;20.58;70.72;98790.88;4153511;28;21014;-83
2022/08/06 04:35:56;;;;;;;4.27;2.80;;;;;;;20.59;70.57;98793.41;4168231;28;20754;-83
2022/08/06 04:38:22;;;;;;;6.60;3.23;;;;;;;20.62;70.18;98790.44;4153791;28;20700;-85
2022/08/06 04:40:33;;;;;;;4.80;3.03;;;;;;;20.65;69.64;98798.09;4133959;28;20639;-83
2022/08/06 04:42:43;;;;;;;4.60;3.00;;;;;;;20.65;70.37;98800.75;4132751;28;21339;-81
2022/08/06 04:44:47;;;;;;;4.20;3.20;;;;;;;20.67;71.45;98801.47;4170423;28;21209;-83
2022/08/06 04:47:03;;;;;;;3.67;2.80;;;;;;;20.66;70.84;98810.38;4166697;28;21000;-84
2022/08/06 04:49:06;;;;;;;4.13;3.10;;;;;;;20.65;71.02;98814.00;4154569;28;20640;-84
2022/08/06 04:51:10;;;;;;;5.30;4.03;;;;;;;20.70;71.97;98813.59;4155026;28;21055;-84
2022/08/06 04:53:37;;;;;;;3.13;2.67;;;;;;;20.69;69.78;98819.88;4158124;28;20728;-84
2022/08/06 04:55:59;;;;;;;4.90;2.90;;;;;;;20.71;70.85;98826.72;4161800;28;21132;-84
2022/08/06 04:58:06;;;;;;;6.57;2.80;;;;;;;20.77;72.04;98826.09;4152790;28;20721;-84
2022/08/06 05:00:18;;;;;;;5.57;3.70;;;;;;;20.73;71.40;98824.72;4171415;28;20706;-84
2022/08/06 05:02:36;;;;;;;3.03;2.73;;;;;;;20.71;70.17;98833.84;4169297;28;20621;-84
2022/08/06 05:04:40;;;;;;;4.50;2.93;;;;;;;20.69;71.31;98834.00;4170064;28;20637;-84
2022/08/06 05:06:49;;;;;;;3.77;2.90;;;;;;;20.70;71.35;98840.13;4153939;28;20661;-84
2022/08/06 05:08:57;;;;;;;6.37;3.50;;;;;;;20.63;71.10;98831.91;4157157;28;20683;-84
2022/08/06 05:11:05;;;;;;;5.97;3.50;;;;;;;20.52;71.24;98839.22;4158513;28;20633;-83
2022/08/06 05:13:11;;;;;;;3.97;3.03;;;;;;;20.47;70.58;98846.78;4155020;28;20601;-84
2022/08/06 05:15:33;;;;;;;3.13;2.83;;;;;;;20.50;71.81;98842.00;4171872;28;20989;-84
2022/08/06 05:17:47;;;;;;;5.37;3.50;;;;;;;20.50;70.04;98849.97;4166519;28;20717;-84
2022/08/06 05:19:55;;;;;;;4.87;3.10;;;;;;;20.56;70.35;98848.53;4171054;28;21363;-84
2022/08/06 05:22:00;;;;;;;3.30;2.70;;;;;;;20.62;72.16;98854.09;4159066;28;21190;-84
2022/08/06 05:24:14;;;;;;;3.47;3.07;;;;;;;20.70;71.35;98856.84;4164126;28;20690;-84
2022/08/06 05:26:18;;;;;;;5.70;3.30;;;;;;;20.66;71.03;98851.97;4153389;28;20725;-84
2022/08/06 05:28:27;;;;;;;4.77;3.30;;;;;;;20.61;71.64;98857.72;4152803;28;20625;-84
2022/08/06 05:30:30;;;;;;;4.20;3.20;;;;;;;20.63;72.49;98860.25;4151551;28;21208;-84
2022/08/06 05:32:41;;;;;;;3.57;3.07;;;;;;;20.64;71.41;98865.41;4168209;28;20686;-84
2022/08/06 05:34:47;;;;;;;3.90;3.07;;;;;;;20.67;70.25;98866.91;4159682;28;20644;-84
2022/08/06 05:36:53;;;;;;;3.47;2.80;;;;;;;20.57;70.90;98861.66;4154709;28;20640;-84
2022/08/06 05:38:58;;;;;;;4.03;2.97;;;;;;;20.63;70.61;98855.75;4170649;28;20666;-84
2022/08/06 05:41:01;;;;;;;3.87;3.03;;;;;;;20.65;71.67;98859.09;4153289;28;20634;-84
2022/08/06 05:43:05;;;;;;;3.67;2.90;;;;;;;20.70;70.65;98859.50;4154946;28;20792;-85
2022/08/06 05:45:11;;;;;;;4.10;3.13;;;;;;;20.85;70.07;98861.53;4169433;28;21077;-84
2022/08/06 05:47:16;;;;;;;4.30;2.90;;;;;;;21.08;71.54;98868.06;4151632;28;20697;-84
2022/08/06 05:49:22;;;;;;;3.27;2.80;;;;;;;21.33;70.01;98872.59;4171011;28;20635;-84
2022/08/06 05:51:51;;;;;;;4.00;3.13;;;;;;;21.67;69.38;98873.63;4172417;28;20660;-84
2022/08/06 05:54:00;;;;;;;3.50;2.80;;;;;;;21.80;68.25;98880.19;4160142;28;20937;-84
2022/08/06 05:56:08;;;;;;;4.30;3.47;;;;;;;21.65;68.39;98873.78;4154624;28;21156;-84
2022/08/06 05:58:16;;;;;;;4.87;2.67;;;;;;;21.64;68.56;98872.09;4169663;28;20668;-84
2022/08/06 06:00:21;;;;;;;3.03;2.73;;;;;;;21.63;67.98;98873.06;4169696;28;21077;-84
2022/08/06 06:02:45;;;;;;;5.90;3.20;;;;;;;21.65;70.10;98878.22;4157161;28;20642;-84
2022/08/06 06:04:52;;;;;;;4.63;3.10;;;;;;;21.72;69.81;98874.81;4172478;28;20633;-84
2022/08/06 06:07:15;;;;;;;3.50;3.00;;;;;;;21.76;67.70;98881.47;4166814;28;20669;-84
2022/08/06 06:09:40;;;;;;;3.90;2.80;;;;;;;21.76;68.22;98880.66;4172372;28;20995;-84
2022/08/06 06:12:05;;;;;;;4.10;3.00;;;;;;;21.80;67.33;98882.84;4151623;28;20628;-85
2022/08/06 06:14:26;;;;;;;3.23;2.43;;;;;;;21.83;68.81;98882.50;4166990;28;20638;-85
2022/08/06 06:16:49;;;;;;;4.87;3.10;;;;;;;21.83;67.33;98882.50;4165434;28;20637;-84
2022/08/06 06:19:06;;;;;;;3.57;2.87;;;;;;;21.86;68.20;98874.22;4157248;28;21025;-84
2022/08/06 06:21:26;;;;;;;4.80;2.80;;;;;;;21.92;68.03;98878.94;4158998;28;20633;-85
2022/08/06 06:23:41;;;;;;;3.33;2.87;;;;;;;22.11;68.23;98881.41;4172481;28;20636;-84
2022/08/06 06:25:53;;;;;;;3.50;3.10;;;;;;;22.24;66.64;98891.47;4140190;28;20674;-85
2022/08/06 06:28:00;;;;;;;4.70;2.87;;;;;;;22.23;66.91;98896.13;4142000;28;20644;-84
2022/08/06 06:30:05;;;;;;;3.93;3.17;;;;;;;22.35;66.88;98901.00;4167013;28;20703;-84
2022/08/06 06:32:17;;;;;;;5.13;3.10;;;;;;;22.47;66.83;98902.41;4157703;28;20653;-85
2022/08/06 06:34:53;;;;;;;3.47;3.07;;;;;;;22.67;67.37;98904.66;4157809;28;21256;-81
2022/08/06 06:37:07;;;;;;;5.10;3.83;;;;;;;22.91;65.27;98905.59;4169514;28;20633;-84
2022/08/06 06:39:17;;;;;;;3.40;3.10;;;;;;;23.05;64.71;98917.47;4156369;28;20706;-84
2022/08/06 06:41:28;;;;;;;4.07;3.13;;;;;;;23.29;64.51;98921.88;4168674;28;20727;-84
2022/08/06 06:43:41;;;;;;;5.87;3.20;;;;;;;23.42;65.17;98932.03;4139727;28;20639;-84
2022/08/06 06:45:54;;;;;;;3.30;2.63;;;;;;;23.61;63.76;98923.75;4150778;28;20646;-83
2022/08/06 06:48:20;;;;;;;3.63;3.20;;;;;;;23.70;63.09;98924.44;4142953;28;20635;-83
2022/08/06 06:50:27;;;;;;;3.67;3.33;;;;;;;23.73;63.35;98932.13;4154352;28;20623;-84
2022/08/06 06:52:35;;;;;;;3.73;3.37;;;;;;;23.73;62.96;98931.28;4140420;28;20677;-82
2022/08/06 06:54:43;;;;;;;6.40;3.70;;;;;;;23.77;62.99;98944.13;4158526;28;21230;-81
2022/08/06 06:57:04;;;;;;;4.20;3.30;;;;;;;23.83;62.78;98934.59;4169602;28;20638;-81
2022/08/06 06:59:15;;;;;;;4.20;3.80;;;;;;;23.81;63.52;98928.63;4170066;28;21187;-82
2022/08/06 07:01:19;;;;;;;4.67;3.50;;;;;;;23.88;63.18;98941.13;4172187;28;20711;-83
2022/08/06 07:03:33;;;;;;;4.87;3.77;;;;;;;23.64;63.74;98929.63;4150064;28;20630;-83
2022/08/06 07:05:47;;;;;;;4.10;3.50;;;;;;;23.54;63.65;98936.88;4152014;28;20639;-85
2022/08/06 07:08:09;;;;;;;4.63;3.20;;;;;;;23.51;64.27;98937.22;4155946;28;21048;-85
2022/08/06 07:10:15;;;;;;;3.80;3.17;;;;;;;23.58;63.27;98942.75;4151568;28;20748;-84
2022/08/06 07:12:22;;;;;;;5.60;3.73;;;;;;;23.23;63.55;98927.84;4153140;28;20626;-84
2022/08/06 07:14:27;;;;;;;6.27;4.17;;;;;;;22.89;66.04;98931.53;4155577;28;20641;-85
2022/08/06 07:16:35;;;;;;;4.13;3.70;;;;;;;23.14;64.98;98932.47;4171358;28;20639;-84
2022/08/06 07:18:40;;;;;;;5.30;3.30;;;;;;;22.97;65.00;98936.09;4169708;28;20632;-84
2022/08/06 07:20:55;;;;;;;5.43;3.60;;;;;;;22.69;65.79;98929.28;4175592;28;20654;-84
2022/08/06 07:23:01;;;;;;;5.37;3.53;;;;;;;22.83;65.86;98934.00;4150739;28;21214;-84
2022/08/06 07:25:25;;;;;;;9.20;4.13;;;;;;;23.15;65.64;98931.50;4151723;28;20637;-85
2022/08/06 07:27:33;;;;;;;4.80;3.83;;;;;;;23.23;64.91;98927.03;4161077;28;20988;-85
2022/08/06 07:29:47;;;;;;;4.87;3.80;;;;;;;23.23;64.49;98940.34;4150737;28;20619;-85
2022/08/06 07:32:02;;;;;;;5.10;4.03;;;;;;;22.84;65.73;98935.69;4168563;28;20722;-85
2022/08/06 07:34:07;;;;;;;3.80;3.50;;;;;;;23.03;66.54;98938.94;4176070;28;21357;-85
2022/08/06 07:36:13;;;;;;;4.63;3.90;;;;;;;23.05;64.27;98938.75;4158771;28;20694;-85
2022/08/06 07:38:21;;;;;;;4.20;3.80;;;;;;;23.01;64.87;98940.94;4173011;28;21608;-85
2022/08/06 07:40:27;;;;;;;4.60;3.67;;;;;;;23.08;65.05;98936.63;4158399;28;20717;-85
2022/08/06 07:42:34;;;;;;;4.53;3.70;;;;;;;22.97;64.46;98942.25;4157573;28;20669;-85
2022/08/06 07:44:40;;;;;;;4.33;3.90;;;;;;;22.68;65.57;98938.25;4168649;28;20638;-84
2022/08/06 07:47:00;;;;;;;5.43;3.50;;;;;;;22.74;65.76;98946.44;4172929;28;20699;-84
2022/08/06 07:49:31;;;;;;;4.60;3.90;;;;;;;23.06;65.14;98951.91;4152050;28;20627;-84
2022/08/06 07:51:55;;;;;;;4.40;3.70;;;;;;;23.35;64.75;98950.53;4151704;28;21284;-84
2022/08/06 07:53:59;;;;;;;4.23;3.80;;;;;;;23.37;65.76;98953.03;4164423;28;20648;-84
2022/08/06 07:56:12;;;;;;;7.17;3.70;;;;;;;23.59;64.22;98960.38;4159434;28;20630;-84
2022/08/06 07:58:19;;;;;;;5.00;3.63;;;;;;;23.65;64.85;98960.59;4169210;28;20627;-84
2022/08/06 08:00:25;;;;;;;4.33;3.87;;;;;;;23.69;63.86;98952.13;4141195;28;20656;-84
2022/08/06 08:02:30;;;;;;;5.03;4.53;;;;;;;23.87;63.24;98959.94;4168265;28;20631;-84
2022/08/06 08:07:00;;;;;;;4.00;3.60;;;;;;;24.04;62.84;98956.28;4128039;28;21209;-84
2022/08/06 08:09:05;;;;;;;5.50;3.70;;;;;;;24.35;61.89;98966.13;4167194;28;20685;-85
2022/08/06 08:11:13;;;;;;;5.10;4.00;;;;;;;24.44;62.48;98954.44;4162726;28;20635;-84
2022/08/06 08:13:19;;;;;;;5.10;3.60;;;;;;;24.69;61.40;98959.56;4156526;28;20642;-84
2022/08/06 08:15:42;;;;;;;4.93;3.60;;;;;;;24.79;60.60;98954.84;4138571;28;20635;-84
2022/08/06 08:17:46;;;;;;;5.60;4.87;;;;;;;24.60;60.28;98955.25;4152917;28;20693;-84
2022/08/06 08:20:03;;;;;;;4.93;4.10;;;;;;;24.47;60.21;98952.25;4156987;28;20637;-84
2022/08/06 08:22:22;;;;;;;6.00;3.97;;;;;;;24.30;60.65;98944.44;4139596;28;21279;-84
2022/08/06 08:24:27;;;;;;;5.70;5.20;;;;;;;24.07;61.45;98940.78;4153997;28;20643;-84
2022/08/06 08:26:31;;;;;;;4.83;3.60;;;;;;;24.42;61.54;98941.28;4166795;28;20633;-84
2022/08/06 08:28:55;;;;;;;4.70;3.50;;;;;;;24.62;60.01;98944.41;4151483;28;20632;-85
2022/08/06 08:31:01;;;;;;;4.40;3.53;;;;;;;24.77;60.38;98944.31;4132218;28;21276;-84
2022/08/06 08:33:26;;;;;;;4.87;3.80;;;;;;;25.01;60.50;98943.44;4140578;28;20669;-84
2022/08/06 08:35:29;;;;;;;4.93;3.43;;;;;;;25.39;60.58;98948.75;4148939;28;20995;-84
2022/08/06 08:37:39;;;;;;;3.60;3.30;;;;;;;25.70;58.34;98950.44;4169677;28;20724;-84
2022/08/06 08:39:45;;;;;;;4.00;3.60;;;;;;;25.92;58.25;98945.06;4166774;28;20660;-84
2022/08/06 08:41:52;;;;;;;5.73;3.40;;;;;;;25.97;57.08;98940.00;4148727;28;21390;-84
2022/08/06 08:44:01;;;;;;;8.60;4.00;;;;;;;26.12;57.06;98944.38;4168176;28;20713;-84
2022/08/06 08:46:08;;;;;;;6.47;3.30;;;;;;;26.21;57.53;98935.28;4142286;28;20636;-84
2022/08/06 08:48:12;;;;;;;8.07;3.90;;;;;;;26.40;55.90;98940.16;4155735;28;20761;-84
2022/08/06 08:50:19;;;;;;;6.47;3.40;;;;;;;26.64;56.30;98939.88;4142961;28;21278;-84
2022/08/06 08:52:27;;;;;;;4.40;3.30;;;;;;;26.98;56.39;98948.22;4159610;28;21056;-84
2022/08/06 08:54:37;;;;;;;10.13;3.80;;;;;;;27.21;56.31;98944.41;4169640;28;20643;-84
2022/08/06 08:56:42;;;;;;;5.37;3.87;;;;;;;27.14;55.86;98951.53;4143409;28;20717;-84
2022/08/06 08:59:06;;;;;;;4.07;3.30;;;;;;;27.14;55.79;98938.97;4174667;28;21244;-85
2022/08/06 09:01:30;;;;;;;4.97;3.40;;;;;;;27.20;55.39;98945.44;4164864;28;20660;-84
2022/08/06 09:03:53;;;;;;;3.63;3.23;;;;;;;26.66;54.71;98938.69;4170475;28;20665;-84
2022/08/06 09:05:58;;;;;;;4.03;3.33;;;;;;;26.49;54.90;98933.72;4135463;28;20659;-84
2022/08/06 09:08:03;;;;;;;4.40;3.30;;;;;;;26.59;55.10;98931.56;4139883;28;20760;-84
2022/08/06 09:10:08;;;;;;;4.80;3.00;;;;;;;26.85;53.63;98935.47;4165373;28;20639;-83
2022/08/06 09:12:18;;;;;;;3.57;3.27;;;;;;;26.92;54.11;98932.91;4149508;28;20719;-84
2022/08/06 09:14:37;;;;;;;4.23;3.60;;;;;;;26.89;53.54;98927.91;4168955;28;20629;-84
2022/08/06 09:16:44;;;;;;;5.10;3.50;;;;;;;27.03;52.82;98929.75;4162928;28;20629;-84
2022/08/06 09:18:52;;;;;;;4.40;3.60;;;;;;;26.64;53.49;98930.00;4171994;28;20646;-84
2022/08/06 09:20:56;;;;;;;5.47;3.07;;;;;;;26.24;53.75;98929.56;4176097;28;20641;-84
2022/08/06 09:23:00;;;;;;;3.30;3.00;;;;;;;26.55;55.22;98922.22;4174896;28;20734;-84
2022/08/06 09:25:35;;;;;;;4.43;3.07;;;;;;;26.88;55.50;98932.41;4158580;28;20632;-84
2022/08/06 09:27:52;;;;;;;4.90;3.50;;;;;;;27.07;52.77;98924.63;4138686;28;21243;-84
2022/08/06 09:29:59;;;;;;;6.07;3.27;;;;;;;27.09;53.07;98929.81;4144457;28;21035;-84
2022/08/06 09:32:13;;;;;;;4.20;3.50;;;;;;;27.32;52.48;98930.50;4158622;28;20634;-85
2022/08/06 09:34:20;;;;;;;4.90;3.53;;;;;;;27.40;52.31;98931.22;4150460;28;21096;-84
2022/08/06 09:36:44;;;;;;;3.83;3.40;;;;;;;27.40;52.04;98933.09;4172354;28;20642;-84
2022/08/06 09:38:48;;;;;;;5.97;3.43;;;;;;;26.97;52.77;98930.47;4158147;28;20643;-84
2022/08/06 09:41:09;;;;;;;4.13;3.50;;;;;;;27.14;53.72;98932.78;4140718;28;20638;-84
2022/08/06 09:43:27;;;;;;;4.00;3.10;;;;;;;26.76;53.00;98933.03;4153884;28;20641;-84
2022/08/06 09:45:52;;;;;;;7.77;3.77;;;;;;;26.02;52.81;98926.09;4168487;28;20639;-84
2022/08/06 09:48:04;;;;;;;4.23;3.50;;;;;;;25.43;54.09;98918.00;4145464;28;21051;-83
2022/08/06 09:50:08;;;;;;;4.70;3.60;;;;;;;25.07;54.03;98914.19;4156981;28;20644;-82
2022/08/06 09:52:14;;;;;;;5.23;3.23;;;;;;;25.00;55.37;98920.41;4153035;28;20693;-83
2022/08/06 09:54:20;;;;;;;5.43;3.60;;;;;;;25.00;55.33;98920.41;4155003;28;21057;-83
2022/08/06 09:56:27;;;;;;;8.07;4.00;;;;;;;24.93;56.13;98922.91;4157303;28;21181;-83
2022/08/06 09:58:34;;;;;;;4.80;4.10;;;;;;;24.73;54.48;98919.00;4170951;28;20704;-83
2022/08/06 10:00:39;;;;;;;4.07;3.63;;;;;;;24.47;56.31;98906.06;4151767;28;21238;-83
2022/08/06 10:02:43;;;;;;;4.20;3.20;;;;;;;24.17;56.40;98910.25;4155819;28;20655;-83
2022/08/06 10:04:53;;;;;;;4.33;3.40;;;;;;;24.22;55.67;98915.09;4171590;28;20627;-82
2022/08/06 10:06:58;;;;;;;3.97;3.03;;;;;;;24.73;56.52;98916.34;4163895;28;20653;-82
2022/08/06 10:09:09;;;;;;;4.03;3.63;;;;;;;25.26;53.79;98930.63;4142220;28;20637;-82
2022/08/06 10:11:36;;;;;;;6.87;3.43;;;;;;;24.92;53.88;98923.09;4151127;28;20641;-83
2022/08/06 10:13:51;;;;;;;7.57;3.43;;;;;;;24.75;55.47;98927.66;4161307;28;20731;-83
2022/08/06 10:15:58;;;;;;;3.73;3.33;;;;;;;24.55;55.75;98922.06;4156846;28;20629;-83
2022/08/06 10:18:07;;;;;;;3.37;3.07;;;;;;;24.56;56.17;98924.56;4154347;28;20644;-83